Time;durP1;ratioP1;P1;durP2;ratioP2;P2;SDS_P1;SDS_P2;PMS_P1;PMS_P2;Temp;Humidity;BMP_temperature;BMP_pressure;BME280_temperature;BME280_humidity;BME280_pressure;Samples;Min_cycle;Max_cycle;Signal;HPM_P1;HPM_P2
2023/02/06 00:00:49;;;;;;;40.13;7.50;;;;;;;5.87;80.17;103644.59;5080023;28;20048;-73
2023/02/06 00:03:16;;;;;;;41.72;6.05;;;;;;;5.79;80.17;103647.50;5074509;28;20044;-73
2023/02/06 00:05:58;;;;;;;49.03;7.00;;;;;;;5.77;79.88;103627.72;5075112;28;20029;-73
2023/02/06 00:08:26;;;;;;;42.38;6.90;;;;;;;5.51;80.85;103622.22;5034845;28;20515;-73
2023/02/06 00:10:54;;;;;;;32.80;5.15;;;;;;;5.50;81.41;103631.50;5071437;28;20056;-73
2023/02/06 00:13:22;;;;;;;39.55;6.15;;;;;;;5.49;81.52;103640.75;5092334;28;20037;-73
2023/02/06 00:15:49;;;;;;;34.72;7.03;;;;;;;5.64;81.24;103635.94;5074889;28;20049;-73
2023/02/06 00:18:16;;;;;;;32.90;6.00;;;;;;;5.51;81.10;103628.56;5074229;28;20048;-73
2023/02/06 00:20:44;;;;;;;28.40;5.40;;;;;;;5.50;81.90;103632.34;5072740;28;20116;-73
2023/02/06 00:23:11;;;;;;;43.53;6.45;;;;;;;5.53;81.63;103628.34;5073715;28;20606;-72
2023/02/06 00:25:38;;;;;;;37.53;5.70;;;;;;;5.29;82.23;103631.69;5057602;28;20526;-74
2023/02/06 00:28:05;;;;;;;42.42;6.45;;;;;;;5.29;82.34;103628.94;5074908;28;20056;-72
2023/02/06 00:30:33;;;;;;;33.33;5.63;;;;;;;5.40;82.00;103620.13;5076130;28;20064;-72
2023/02/06 00:33:00;;;;;;;42.58;6.70;;;;;;;5.34;82.10;103630.00;5076566;28;20055;-73
2023/02/06 00:35:27;;;;;;;34.35;6.50;;;;;;;5.25;82.34;103619.47;5074356;28;20055;-73
2023/02/06 00:37:55;;;;;;;37.38;5.72;;;;;;;5.35;83.16;103622.66;5074976;28;20048;-72
2023/02/06 00:40:22;;;;;;;35.50;5.80;;;;;;;5.45;81.63;103628.56;5075545;28;20053;-72
2023/02/06 00:42:50;;;;;;;38.85;5.60;;;;;;;5.41;82.01;103622.66;5075081;28;20044;-72
2023/02/06 00:45:17;;;;;;;39.00;6.20;;;;;;;5.34;82.51;103626.41;5073419;28;20431;-72
2023/02/06 00:47:44;;;;;;;48.83;7.00;;;;;;;5.31;82.64;103622.22;5075403;28;20047;-72
2023/02/06 00:50:11;;;;;;;52.00;6.70;;;;;;;5.44;82.57;103614.03;5057429;28;20062;-73
2023/02/06 00:52:39;;;;;;;42.38;6.22;;;;;;;5.44;81.84;103626.88;5074410;28;20431;-73
2023/02/06 00:55:06;;;;;;;42.72;5.95;;;;;;;4.96;83.75;103619.81;5057719;28;20052;-73
2023/02/06 00:57:33;;;;;;;32.70;5.45;;;;;;;5.12;83.58;103631.22;5073964;28;20060;-74
2023/02/06 01:00:03;;;;;;;29.00;4.97;;;;;;;5.19;83.17;103626.63;5075824;28;20053;-74
2023/02/06 01:02:30;;;;;;;36.20;5.97;;;;;;;4.98;83.18;103634.13;5075258;28;20075;-73
2023/02/06 01:04:58;;;;;;;41.95;5.75;;;;;;;4.89;84.60;103638.94;5074482;28;20043;-74
2023/02/06 01:07:25;;;;;;;47.05;6.20;;;;;;;4.92;84.42;103635.78;5040086;28;20053;-73
2023/02/06 01:09:53;;;;;;;35.38;6.75;;;;;;;4.95;84.61;103631.81;5074219;28;20411;-73
2023/02/06 01:12:20;;;;;;;38.83;5.70;;;;;;;4.91;84.94;103630.53;5073064;28;20060;-73
2023/02/06 01:14:48;;;;;;;39.55;6.35;;;;;;;5.15;83.84;103621.75;5057788;28;20408;-73
2023/02/06 01:17:15;;;;;;;43.83;6.70;;;;;;;4.80;85.24;103622.91;5074852;28;20055;-73
2023/02/06 01:19:43;;;;;;;36.95;5.65;;;;;;;4.94;85.21;103620.03;5074121;28;20049;-73
2023/02/06 01:22:10;;;;;;;40.55;6.88;;;;;;;5.14;83.68;103620.09;5073570;28;20059;-73
2023/02/06 01:24:37;;;;;;;38.45;7.10;;;;;;;5.17;82.76;103626.00;5075309;28;20064;-74
2023/02/06 01:27:05;;;;;;;29.88;5.93;;;;;;;4.95;84.14;103632.63;5074925;28;20044;-74
2023/02/06 01:29:32;;;;;;;50.75;7.43;;;;;;;4.96;84.39;103628.03;5075317;28;20059;-73
2023/02/06 01:31:59;;;;;;;38.70;7.20;;;;;;;4.89;84.42;103625.28;5056900;28;20507;-73
2023/02/06 01:34:27;;;;;;;44.25;5.88;;;;;;;4.99;84.27;103616.66;5056670;28;20053;-73
2023/02/06 01:36:54;;;;;;;39.85;6.03;;;;;;;4.97;84.19;103618.78;5073608;28;20052;-73
2023/02/06 01:39:21;;;;;;;42.08;7.85;;;;;;;5.07;83.85;103616.50;5075191;28;20048;-72
2023/02/06 01:41:49;;;;;;;32.85;5.65;;;;;;;4.78;84.31;103622.31;5056937;28;20419;-72
2023/02/06 01:44:23;;;;;;;39.15;6.07;;;;;;;4.66;85.58;103616.56;5075225;28;20048;-73
2023/02/06 01:46:53;;;;;;;41.28;6.28;;;;;;;4.73;85.63;103622.03;5040766;28;20052;-72
2023/02/06 01:49:29;;;;;;;45.35;6.53;;;;;;;4.82;85.52;103609.91;5057278;28;20055;-73
2023/02/06 01:52:30;;;;;;;48.85;6.15;;;;;;;4.86;84.85;103612.03;5039572;28;20074;-72
2023/02/06 01:55:00;;;;;;;40.05;7.18;;;;;;;4.98;84.53;103606.81;5072865;28;20504;-73
2023/02/06 01:57:28;;;;;;;41.13;7.35;;;;;;;4.92;83.75;103593.97;5074179;28;20052;-73
2023/02/06 01:59:58;;;;;;;38.45;5.97;;;;;;;4.72;85.57;103598.53;5073705;28;20055;-73
2023/02/06 02:02:28;;;;;;;46.38;6.20;;;;;;;4.81;85.22;103597.31;5073210;28;20055;-72
2023/02/06 02:04:55;;;;;;;;;;;;;;;4.98;84.54;103598.63;5024427;28;20068;-73
2023/02/06 02:07:30;;;;;;;49.40;6.68;;;;;;;4.64;85.71;103606.91;5055314;28;20395;-73
2023/02/06 02:09:58;;;;;;;41.83;7.95;;;;;;;4.71;85.70;103596.88;5039923;28;20056;-73
2023/02/06 02:12:27;;;;;;;37.43;5.43;;;;;;;4.53;86.21;103600.97;5073195;28;20055;-75
2023/02/06 02:14:55;;;;;;;42.20;6.00;;;;;;;4.55;86.48;103593.41;5074929;28;20063;-73
2023/02/06 02:17:32;;;;;;;41.28;6.47;;;;;;;4.63;86.20;103588.84;5072843;28;20160;-73
2023/02/06 02:20:14;;;;;;;41.35;6.97;;;;;;;4.75;85.66;103581.72;5073709;28;20063;-73
2023/02/06 02:22:57;;;;;;;41.30;5.47;;;;;;;4.69;85.76;103580.66;5073552;28;20056;-73
2023/02/06 02:26:01;;;;;;;45.05;7.70;;;;;;;4.63;86.42;103567.00;5074110;28;20048;-73
2023/02/06 02:28:52;;;;;;;45.83;7.20;;;;;;;4.66;86.21;103578.34;5073051;28;20059;-73
2023/02/06 02:31:37;;;;;;;43.97;6.00;;;;;;;4.53;86.87;103561.94;5035414;28;20068;-73
2023/02/06 02:34:32;;;;;;;50.40;7.50;;;;;;;4.70;86.09;103562.41;5036681;28;20053;-73
2023/02/06 02:37:09;;;;;;;45.28;7.43;;;;;;;4.73;85.81;103568.28;5047954;28;20059;-73
2023/02/06 02:39:49;;;;;;;39.15;7.22;;;;;;;4.71;84.95;103561.38;5036651;28;20064;-73
2023/02/06 02:42:26;;;;;;;44.72;7.43;;;;;;;4.46;86.13;103558.34;5054303;28;20055;-74
2023/02/06 02:45:09;;;;;;;48.85;9.00;;;;;;;4.39;86.83;103566.47;5056620;28;20041;-73
2023/02/06 02:48:06;;;;;;;43.35;8.55;;;;;;;4.44;87.32;103566.72;5076586;28;20074;-72
2023/02/06 02:50:34;;;;;;;45.53;9.95;;;;;;;4.63;86.07;103567.00;5043124;28;20392;-73
2023/02/06 02:53:03;;;;;;;49.88;10.02;;;;;;;4.72;86.23;103571.22;5078352;28;20057;-73
2023/02/06 02:55:31;;;;;;;46.17;9.30;;;;;;;4.47;86.26;103566.31;5076239;28;20052;-72
2023/02/06 02:58:05;;;;;;;;;;;;;;;4.58;86.11;103570.34;5077200;28;20060;-72
2023/02/06 03:00:36;;;;;;;55.03;8.50;;;;;;;4.54;86.65;103567.19;5076487;28;19936;-74
2023/02/06 03:03:07;;;;;;;38.65;7.43;;;;;;;4.58;86.49;103568.44;5060659;28;20041;-73
2023/02/06 03:05:36;;;;;;;44.40;8.45;;;;;;;4.54;86.41;103569.91;5076747;28;20063;-73
2023/02/06 03:08:18;;;;;;;45.45;8.45;;;;;;;4.54;86.48;103560.88;5059903;28;20059;-74
2023/02/06 03:11:08;;;;;;;44.17;7.53;;;;;;;4.66;85.73;103555.66;5076233;28;20049;-73
2023/02/06 03:14:04;;;;;;;45.38;6.68;;;;;;;4.33;87.58;103553.66;5076967;28;20045;-74
2023/02/06 03:16:36;;;;;;;52.03;7.75;;;;;;;4.23;88.60;103550.47;5059628;28;20041;-73
2023/02/06 03:19:08;;;;;;;47.95;8.35;;;;;;;4.15;88.96;103553.34;5043469;28;20060;-73
2023/02/06 03:21:38;;;;;;;43.35;7.72;;;;;;;4.37;88.27;103544.03;5042677;28;20495;-73
2023/02/06 03:24:28;;;;;;;38.40;6.90;;;;;;;4.34;88.26;103536.22;5043455;28;20045;-73
2023/02/06 03:26:58;;;;;;;42.30;6.88;;;;;;;4.35;88.78;103531.63;5071486;28;20048;-73
2023/02/06 03:29:28;;;;;;;39.80;8.18;;;;;;;4.33;88.68;103525.53;5076443;28;20064;-73
2023/02/06 03:32:05;;;;;;;49.15;9.25;;;;;;;4.15;88.83;103526.06;5076102;28;20127;-73
2023/02/06 03:35:13;;;;;;;46.13;7.55;;;;;;;4.05;89.62;103522.88;5042804;28;20052;-73
2023/02/06 03:37:41;;;;;;;40.17;7.15;;;;;;;4.23;89.72;103517.72;5075602;28;20066;-73
2023/02/06 03:40:10;;;;;;;38.05;7.13;;;;;;;4.17;89.23;103523.13;5059224;28;20071;-73
2023/02/06 03:42:40;;;;;;;38.50;6.88;;;;;;;4.29;88.29;103522.38;5059629;28;20044;-74
2023/02/06 03:45:36;;;;;;;45.63;7.82;;;;;;;4.43;88.62;103515.91;5059539;28;20045;-72
2023/02/06 03:48:28;;;;;;;52.95;7.43;;;;;;;4.38;87.91;103515.69;5039587;28;20053;-71
2023/02/06 03:50:58;;;;;;;47.05;8.98;;;;;;;4.14;89.35;103501.72;5058793;28;20052;-72
2023/02/06 03:53:26;;;;;;;39.88;7.53;;;;;;;4.21;89.19;103510.78;5075898;28;20048;-73
2023/02/06 03:55:57;;;;;;;43.00;9.02;;;;;;;4.07;89.20;103528.13;5059049;28;20047;-72
2023/02/06 03:58:25;;;;;;;37.65;7.07;;;;;;;4.19;89.23;103518.31;5042419;28;20415;-73
2023/02/06 04:00:52;;;;;;;47.65;7.22;;;;;;;4.21;88.77;103522.53;5059265;28;20045;-72
2023/02/06 04:03:20;;;;;;;36.53;7.97;;;;;;;4.17;88.96;103532.16;5077594;28;20067;-73
2023/02/06 04:05:47;;;;;;;40.95;7.57;;;;;;;4.15;89.03;103517.06;5076873;28;20586;-72
2023/02/06 04:08:15;;;;;;;44.90;8.13;;;;;;;4.22;88.60;103521.50;5077053;28;20052;-72
2023/02/06 04:10:42;;;;;;;47.85;7.55;;;;;;;4.20;88.74;103509.94;5075167;28;20054;-73
2023/02/06 04:13:10;;;;;;;42.80;8.38;;;;;;;4.31;88.13;103519.41;5075884;28;20448;-72
2023/02/06 04:15:37;;;;;;;43.55;7.13;;;;;;;4.26;88.10;103502.84;5076490;28;20048;-72
2023/02/06 04:18:04;;;;;;;36.17;7.22;;;;;;;4.27;88.17;103505.34;5042821;28;20052;-73
2023/02/06 04:20:32;;;;;;;43.45;7.38;;;;;;;4.12;88.43;103503.81;5058120;28;20060;-72
2023/02/06 04:22:59;;;;;;;44.95;7.90;;;;;;;4.18;88.38;103508.47;5075662;28;20044;-73
2023/02/06 04:25:27;;;;;;;50.72;8.18;;;;;;;4.12;88.83;103504.66;5076233;28;20051;-73
2023/02/06 04:27:54;;;;;;;37.78;7.32;;;;;;;4.05;88.61;103517.44;5075617;28;20060;-72
2023/02/06 04:30:21;;;;;;;43.22;7.70;;;;;;;3.93;89.80;103512.75;5074917;28;20071;-73
2023/02/06 04:32:49;;;;;;;48.20;8.80;;;;;;;3.97;89.47;103493.06;5075493;28;20051;-73
2023/02/06 04:35:16;;;;;;;44.28;6.68;;;;;;;3.96;89.03;103493.25;5075969;28;20060;-74
2023/02/06 04:37:43;;;;;;;47.58;7.25;;;;;;;4.01;89.49;103483.41;5075385;28;20063;-73
2023/02/06 04:40:11;;;;;;;41.80;7.60;;;;;;;4.01;89.22;103483.41;5074389;28;20057;-73
2023/02/06 04:42:42;;;;;;;41.20;7.15;;;;;;;3.99;89.08;103490.13;5076117;28;20049;-73
2023/02/06 04:45:09;;;;;;;42.75;7.05;;;;;;;3.87;89.32;103475.38;5076186;28;20383;-74
2023/02/06 04:47:37;;;;;;;42.53;7.15;;;;;;;3.99;88.88;103473.78;5075977;28;20492;-73
2023/02/06 04:50:05;;;;;;;33.83;7.03;;;;;;;3.87;89.27;103476.22;5074491;28;20399;-73
2023/02/06 04:52:32;;;;;;;32.45;6.75;;;;;;;3.78;89.53;103480.16;5073627;28;20060;-73
2023/02/06 04:54:59;;;;;;;41.80;7.55;;;;;;;3.92;89.74;103483.81;5076152;28;20693;-73
2023/02/06 04:57:26;;;;;;;38.45;7.43;;;;;;;3.88;89.29;103485.25;5075593;28;20048;-74
2023/02/06 04:59:54;;;;;;;45.13;6.85;;;;;;;3.80;89.20;103486.25;5074659;28;20056;-73
2023/02/06 05:02:21;;;;;;;37.15;6.80;;;;;;;3.77;89.46;103475.75;5074180;28;20053;-73
2023/02/06 05:04:50;;;;;;;37.17;6.80;;;;;;;3.64;89.86;103486.59;5075841;28;20049;-69
2023/02/06 05:07:18;;;;;;;41.00;6.57;;;;;;;3.85;89.92;103483.78;5073962;28;20061;-69
2023/02/06 05:09:46;;;;;;;43.90;7.28;;;;;;;3.80;88.81;103482.69;5073566;28;20044;-69
2023/02/06 05:12:13;;;;;;;49.92;6.97;;;;;;;3.62;89.86;103485.09;5075427;28;20059;-69
2023/02/06 05:14:40;;;;;;;49.72;7.43;;;;;;;3.69;89.84;103473.19;5074488;28;20427;-68
2023/02/06 05:17:08;;;;;;;40.22;6.68;;;;;;;3.69;89.39;103485.97;5075186;28;20044;-68
2023/02/06 05:19:35;;;;;;;45.10;6.75;;;;;;;3.61;89.79;103486.16;5074185;28;20060;-69
2023/02/06 05:22:02;;;;;;;45.35;6.82;;;;;;;3.51;90.07;103475.59;5073748;28;20044;-69
2023/02/06 05:24:30;;;;;;;46.20;8.18;;;;;;;3.68;90.10;103481.56;5074090;28;20049;-69
2023/02/06 05:26:57;;;;;;;48.20;7.25;;;;;;;3.78;89.36;103484.78;5074666;28;20044;-69
2023/02/06 05:29:24;;;;;;;40.15;6.15;;;;;;;3.64;89.26;103474.84;5074058;28;20488;-69
2023/02/06 05:31:52;;;;;;;43.72;6.85;;;;;;;3.58;89.84;103473.75;5073821;28;20511;-69
2023/02/06 05:34:20;;;;;;;34.15;6.18;;;;;;;3.57;89.48;103477.53;5075347;28;20480;-70
2023/02/06 05:36:47;;;;;;;40.45;6.68;;;;;;;3.74;89.72;103470.69;5073546;28;20056;-69
2023/02/06 05:39:14;;;;;;;41.10;6.90;;;;;;;3.87;88.46;103472.66;5075192;28;20064;-69
2023/02/06 05:41:41;;;;;;;41.80;7.00;;;;;;;3.87;87.75;103483.56;5056429;28;20055;-69
2023/02/06 05:44:09;;;;;;;46.42;7.10;;;;;;;4.00;87.37;103486.34;5041199;28;20052;-69
2023/02/06 05:46:37;;;;;;;50.92;6.88;;;;;;;3.93;86.92;103494.50;5074842;28;20534;-70
2023/02/06 05:49:04;;;;;;;52.22;6.93;;;;;;;4.00;87.08;103492.66;5075201;28;20048;-69
2023/02/06 05:51:32;;;;;;;49.83;8.50;;;;;;;3.92;86.94;103492.84;5074574;28;20044;-69
2023/02/06 05:53:59;;;;;;;47.53;7.38;;;;;;;3.64;88.01;103483.88;5074054;28;20610;-70
2023/02/06 05:56:26;;;;;;;38.10;7.00;;;;;;;3.63;88.93;103498.50;5073452;28;20037;-70
2023/02/06 05:58:53;;;;;;;45.05;7.57;;;;;;;3.79;88.26;103483.72;5075078;28;20048;-69
2023/02/06 06:01:21;;;;;;;40.15;7.10;;;;;;;3.82;87.71;103484.16;5073422;28;20084;-70
2023/02/06 06:03:48;;;;;;;42.67;7.63;;;;;;;3.60;88.39;103488.03;5075347;28;20045;-70
2023/02/06 06:06:16;;;;;;;40.40;6.75;;;;;;;3.59;88.62;103496.41;5074448;28;20464;-69
2023/02/06 06:08:43;;;;;;;47.47;7.28;;;;;;;3.55;89.23;103501.41;5074473;28;20056;-69
2023/02/06 06:11:11;;;;;;;42.30;7.72;;;;;;;3.61;88.80;103506.03;5074539;28;20060;-68
2023/02/06 06:13:39;;;;;;;41.22;6.18;;;;;;;3.62;88.31;103509.63;5075062;28;20044;-70
2023/02/06 06:16:07;;;;;;;35.60;7.70;;;;;;;3.62;88.15;103498.72;5073496;28;20059;-70
2023/02/06 06:18:34;;;;;;;42.78;7.85;;;;;;;3.71;87.97;103522.06;5070385;28;20041;-69
2023/02/06 06:21:04;;;;;;;41.88;7.57;;;;;;;3.60;88.44;103518.00;5063245;28;20122;-69
2023/02/06 06:23:31;;;;;;;41.08;6.85;;;;;;;3.58;88.51;103516.50;5061319;28;20071;-69
2023/02/06 06:25:59;;;;;;;38.40;7.25;;;;;;;3.51;89.15;103515.59;5077436;28;20507;-68
2023/02/06 06:28:26;;;;;;;53.47;8.30;;;;;;;3.60;88.43;103519.88;5061181;28;20052;-69
2023/02/06 06:31:01;;;;;;;43.50;6.82;;;;;;;3.67;87.89;103518.88;5059475;28;20052;-69
2023/02/06 06:33:29;;;;;;;31.15;5.90;;;;;;;3.56;88.05;103516.69;5078761;28;20053;-69
2023/02/06 06:35:57;;;;;;;52.80;8.45;;;;;;;3.60;88.02;103520.72;5077875;28;20049;-69
2023/02/06 06:38:26;;;;;;;41.15;7.68;;;;;;;3.68;87.30;103517.00;5077426;28;20052;-70
2023/02/06 06:40:53;;;;;;;47.00;7.75;;;;;;;3.69;87.42;103511.34;5077106;28;20053;-69
2023/02/06 06:43:21;;;;;;;39.90;7.57;;;;;;;3.85;87.39;103513.78;5078749;28;20049;-69
2023/02/06 06:45:48;;;;;;;47.90;7.20;;;;;;;3.92;87.09;103516.53;5068723;28;20542;-66
2023/02/06 06:48:15;;;;;;;44.92;6.47;;;;;;;3.94;86.39;103520.72;5043847;28;20044;-66
2023/02/06 06:50:43;;;;;;;38.08;6.78;;;;;;;3.78;86.06;103514.75;5077650;28;20041;-67
2023/02/06 06:53:10;;;;;;;37.65;7.45;;;;;;;3.66;86.58;103516.34;5072604;28;20045;-68
2023/02/06 06:55:37;;;;;;;48.60;6.90;;;;;;;3.77;86.59;103508.47;5059534;28;20052;-65
2023/02/06 06:58:04;;;;;;;33.72;6.38;;;;;;;3.72;86.54;103521.84;5068876;28;20049;-65
2023/02/06 07:00:32;;;;;;;40.30;7.65;;;;;;;3.67;86.89;103507.97;5061064;28;20056;-69
2023/02/06 07:02:59;;;;;;;53.40;8.48;;;;;;;3.78;86.42;103514.75;5040113;28;20068;-67
2023/02/06 07:05:26;;;;;;;43.42;7.78;;;;;;;3.60;85.96;103498.06;5067404;28;20060;-66
2023/02/06 07:07:54;;;;;;;36.45;7.40;;;;;;;3.59;86.99;103507.28;5066917;28;20056;-69
2023/02/06 07:10:21;;;;;;;36.67;6.72;;;;;;;3.69;86.85;103505.91;5073242;28;20059;-68
2023/02/06 07:12:52;;;;;;;43.65;9.02;;;;;;;3.58;86.71;103500.16;5072178;28;20075;-67
2023/02/06 07:15:19;;;;;;;32.97;6.90;;;;;;;3.65;86.58;103504.59;5076501;28;20052;-68
2023/02/06 07:17:47;;;;;;;34.03;6.97;;;;;;;3.64;86.77;103508.38;5078044;28;20055;-68
2023/02/06 07:20:14;;;;;;;43.80;8.02;;;;;;;3.72;86.08;103507.38;5077317;28;20052;-69
2023/02/06 07:22:42;;;;;;;44.65;9.05;;;;;;;3.72;86.26;103502.78;5078348;28;20055;-67
2023/02/06 07:25:09;;;;;;;34.17;7.70;;;;;;;3.77;85.51;103499.44;5077948;28;20049;-68
2023/02/06 07:27:36;;;;;;;37.70;7.13;;;;;;;3.79;85.50;103506.38;5076658;28;20055;-67
2023/02/06 07:30:04;;;;;;;33.00;6.45;;;;;;;3.71;85.34;103516.59;5069857;28;20348;-67
2023/02/06 07:32:35;;;;;;;39.45;8.15;;;;;;;3.73;85.93;103514.53;5051676;28;20411;-67
2023/02/06 07:35:04;;;;;;;30.17;7.07;;;;;;;3.68;85.58;103526.00;5065035;28;20389;-69
2023/02/06 07:37:31;;;;;;;49.70;8.60;;;;;;;3.45;87.22;103514.53;5073245;28;20040;-69
2023/02/06 07:39:58;;;;;;;49.90;11.60;;;;;;;3.75;86.56;103521.44;5059080;28;20056;-67
2023/02/06 07:42:26;;;;;;;42.78;7.43;;;;;;;3.76;85.47;103525.00;5056612;28;20084;-70
2023/02/06 07:44:59;;;;;;;42.53;7.28;;;;;;;3.70;85.49;103536.69;5047976;28;20051;-69
2023/02/06 07:47:26;;;;;;;40.55;8.02;;;;;;;3.77;85.88;103543.03;5066758;28;20400;-67
2023/02/06 07:49:53;;;;;;;33.55;7.30;;;;;;;3.74;86.16;103546.19;5069331;28;20044;-67
2023/02/06 07:52:21;;;;;;;44.50;8.27;;;;;;;3.88;85.63;103548.81;5062364;28;20055;-68
2023/02/06 07:54:48;;;;;;;45.33;7.88;;;;;;;3.71;85.23;103552.88;5064702;28;20049;-68
2023/02/06 07:57:15;;;;;;;47.72;7.35;;;;;;;3.65;85.82;103548.22;5062930;28;20044;-67
2023/02/06 07:59:43;;;;;;;43.78;7.45;;;;;;;3.63;85.49;103546.75;5056341;28;20573;-67
2023/02/06 08:02:11;;;;;;;45.25;8.13;;;;;;;3.44;86.27;103550.97;5059103;28;20067;-67
2023/02/06 08:04:38;;;;;;;39.35;8.57;;;;;;;3.31;87.03;103538.09;5074360;28;20053;-66
2023/02/06 08:07:08;;;;;;;48.45;8.70;;;;;;;3.53;86.74;103533.44;5062157;28;20049;-67
2023/02/06 08:09:35;;;;;;;55.58;8.38;;;;;;;3.39;86.57;103528.94;5067912;28;20053;-68
2023/02/06 08:12:03;;;;;;;45.15;8.88;;;;;;;3.50;87.01;103520.25;5066483;28;20067;-68
2023/02/06 08:14:31;;;;;;;35.35;7.28;;;;;;;3.78;86.17;103521.06;5068666;28;20045;-67
2023/02/06 08:16:58;;;;;;;45.47;9.10;;;;;;;3.85;84.96;103527.41;5066200;28;20052;-68
2023/02/06 08:19:26;;;;;;;40.80;8.25;;;;;;;3.93;84.18;103526.38;5058480;28;20067;-68
2023/02/06 08:21:53;;;;;;;51.85;8.85;;;;;;;3.62;85.40;103525.97;5063548;28;20801;-68
2023/02/06 08:24:20;;;;;;;43.40;8.27;;;;;;;3.70;85.41;103532.09;5057797;28;20056;-68
2023/02/06 08:26:48;;;;;;;58.47;10.60;;;;;;;3.73;85.26;103526.25;5054654;28;20052;-68
2023/02/06 08:29:15;;;;;;;44.13;9.15;;;;;;;3.92;84.32;103525.56;5065680;28;20492;-68
2023/02/06 08:31:43;;;;;;;50.95;9.68;;;;;;;4.12;83.68;103512.00;5038262;28;20044;-68
2023/02/06 08:34:12;;;;;;;46.88;8.57;;;;;;;4.39;82.80;103511.06;5057196;28;20055;-68
2023/02/06 08:36:40;;;;;;;35.95;8.68;;;;;;;4.23;82.27;103505.97;5065563;28;20048;-68
2023/02/06 08:39:12;;;;;;;36.75;7.68;;;;;;;4.12;82.71;103507.41;5051062;28;20044;-68
2023/02/06 08:41:41;;;;;;;42.70;8.32;;;;;;;4.32;82.16;103508.31;5046390;28;20060;-68
2023/02/06 08:44:12;;;;;;;44.05;8.43;;;;;;;3.97;82.45;103506.69;5045705;28;20052;-68
2023/02/06 08:46:39;;;;;;;44.97;9.18;;;;;;;4.00;83.04;103503.56;5043116;28;20056;-67
2023/02/06 08:49:11;;;;;;;37.65;8.73;;;;;;;3.99;82.29;103503.78;5062924;28;20055;-67
2023/02/06 08:51:38;;;;;;;48.58;9.02;;;;;;;3.93;82.83;103488.19;5035879;28;20160;-68
2023/02/06 08:54:09;;;;;;;38.08;8.90;;;;;;;4.08;82.47;103486.19;5058032;28;20049;-68
2023/02/06 08:56:37;;;;;;;38.15;8.48;;;;;;;4.03;82.39;103484.06;5067448;28;20044;-68
2023/02/06 08:59:06;;;;;;;39.42;9.23;;;;;;;3.84;82.69;103479.34;5062315;28;20441;-66
2023/02/06 09:01:35;;;;;;;38.35;9.05;;;;;;;4.00;82.85;103481.75;5053410;28;20053;-69
2023/02/06 09:04:05;;;;;;;45.80;10.18;;;;;;;3.88;83.17;103475.19;5056501;28;20045;-68
2023/02/06 09:06:39;;;;;;;40.00;9.23;;;;;;;4.01;82.42;103474.41;5057198;28;20052;-70
2023/02/06 09:09:08;;;;;;;32.85;8.07;;;;;;;3.97;82.52;103473.97;5059224;28;20043;-69
2023/02/06 09:11:36;;;;;;;43.30;8.23;;;;;;;3.96;82.33;103474.16;5045053;28;20053;-69
2023/02/06 09:14:05;;;;;;;36.40;8.65;;;;;;;3.93;82.66;103466.38;5045631;28;20045;-69
2023/02/06 09:16:33;;;;;;;37.30;8.95;;;;;;;3.71;83.36;103482.03;5061862;28;20452;-69
2023/02/06 09:19:01;;;;;;;43.45;9.70;;;;;;;3.76;83.31;103481.41;5057471;28;20045;-69
2023/02/06 09:21:31;;;;;;;33.10;8.35;;;;;;;3.78;83.60;103479.31;5058830;28;20056;-68
2023/02/06 09:23:59;;;;;;;;;;;;;;;4.71;85.27;103484.94;5056242;28;20056;-67
2023/02/06 09:26:30;;;;;;;33.15;8.98;;;;;;;4.23;81.33;103484.16;5065867;28;19929;-68
2023/02/06 09:28:59;;;;;;;41.00;10.20;;;;;;;3.88;82.07;103486.09;5065371;28;20041;-68
2023/02/06 09:31:31;;;;;;;37.38;10.40;;;;;;;4.02;82.25;103493.28;5052626;28;20053;-69
2023/02/06 09:33:59;;;;;;;40.25;9.40;;;;;;;4.13;81.56;103480.97;5057873;28;20384;-69
2023/02/06 09:36:29;;;;;;;50.60;10.25;;;;;;;4.45;80.46;103482.97;5054163;28;20056;-69
2023/02/06 09:38:58;;;;;;;47.30;10.70;;;;;;;4.12;81.01;103484.72;5062237;28;20048;-69
2023/02/06 09:41:25;;;;;;;48.73;9.77;;;;;;;4.22;81.63;103480.56;5056848;28;20052;-69
2023/02/06 09:44:05;;;;;;;43.25;10.07;;;;;;;4.28;80.86;103481.66;5058555;28;20507;-70
2023/02/06 09:46:35;;;;;;;42.97;9.60;;;;;;;4.27;80.63;103491.72;5056133;28;20045;-68
2023/02/06 09:49:10;;;;;;;46.88;10.27;;;;;;;4.10;81.11;103476.75;5056206;28;20052;-69
2023/02/06 09:52:10;;;;;;;37.03;9.27;;;;;;;4.30;80.82;103480.41;5053914;28;20048;-68
2023/02/06 09:54:43;;;;;;;55.25;12.43;;;;;;;4.39;80.30;103481.06;5062650;28;20052;-70
2023/02/06 09:57:20;;;;;;;38.63;9.75;;;;;;;4.63;79.79;103485.09;5064493;28;20385;-69
2023/02/06 09:59:52;;;;;;;45.50;9.07;;;;;;;4.63;78.99;103485.09;5073691;28;20051;-69
2023/02/06 10:02:29;;;;;;;43.75;9.15;;;;;;;4.76;78.51;103476.94;5067667;28;20048;-68
2023/02/06 10:05:30;;;;;;;35.83;9.80;;;;;;;4.95;78.07;103479.69;5061731;28;20044;-70
2023/02/06 10:08:07;;;;;;;36.70;9.32;;;;;;;4.91;77.07;103480.31;5056145;28;20053;-69
2023/02/06 10:10:42;;;;;;;36.50;9.43;;;;;;;4.86;77.79;103478.22;5056815;28;20053;-69
2023/02/06 10:13:22;;;;;;;40.15;9.32;;;;;;;4.92;77.18;103479.25;5065877;28;20575;-68
2023/02/06 10:15:54;;;;;;;35.65;9.85;;;;;;;4.86;76.97;103469.19;5067000;28;20048;-67
2023/02/06 10:18:31;;;;;;;35.95;9.88;;;;;;;4.91;77.03;103478.44;5062411;28;20062;-69
2023/02/06 10:21:11;;;;;;;36.15;9.32;;;;;;;4.90;77.33;103489.56;5061070;28;20044;-68
2023/02/06 10:23:44;;;;;;;34.72;9.60;;;;;;;4.91;76.35;103481.16;5042310;28;20075;-68
2023/02/06 10:26:17;;;;;;;36.35;9.60;;;;;;;4.87;76.63;103484.50;5066460;28;20059;-68
2023/02/06 10:28:51;;;;;;;34.97;9.45;;;;;;;4.88;76.86;103481.56;5047976;28;20044;-68
2023/02/06 10:31:32;;;;;;;34.83;9.27;;;;;;;5.10;76.53;103495.88;5054437;28;20052;-68
2023/02/06 10:34:19;;;;;;;35.20;9.45;;;;;;;5.01;75.54;103497.13;5038662;28;20053;-69
2023/02/06 10:36:55;;;;;;;31.70;8.20;;;;;;;4.81;76.23;103483.47;5062708;28;20052;-69
2023/02/06 10:39:29;;;;;;;55.90;10.75;;;;;;;4.98;76.23;103473.81;5053464;28;20041;-69
2023/02/06 10:42:09;;;;;;;35.83;10.02;;;;;;;5.02;75.92;103464.13;5061168;28;20044;-70
2023/02/06 10:44:44;;;;;;;30.88;10.43;;;;;;;5.31;75.33;103468.34;5056271;28;20061;-68
2023/02/06 10:47:53;;;;;;;35.42;9.27;;;;;;;5.52;74.71;103458.03;5062000;28;20045;-68
2023/02/06 10:50:28;;;;;;;49.33;10.65;;;;;;;5.65;74.17;103477.13;5055214;28;20072;-68
2023/02/06 10:53:00;;;;;;;32.97;9.80;;;;;;;5.25;74.25;103455.50;5054052;28;20412;-67
2023/02/06 10:55:40;;;;;;;34.17;10.25;;;;;;;5.25;74.65;103448.16;5065539;28;20055;-67
2023/02/06 10:58:28;;;;;;;35.80;10.60;;;;;;;5.31;74.35;103449.22;5057082;28;20079;-67
2023/02/06 11:00:57;;;;;;;28.60;9.13;;;;;;;5.19;75.07;103461.84;5067523;28;20079;-67
2023/02/06 11:03:29;;;;;;;47.60;10.60;;;;;;;5.47;75.04;103452.34;5050193;28;20412;-67
2023/02/06 11:05:58;;;;;;;33.45;9.75;;;;;;;5.74;74.47;103453.97;5066368;28;20410;-67
2023/02/06 11:08:33;;;;;;;41.42;11.20;;;;;;;5.81;73.99;103455.81;5055756;28;20060;-67
2023/02/06 11:11:31;;;;;;;39.85;10.55;;;;;;;5.57;73.98;103458.22;5054205;28;20079;-67
2023/02/06 11:14:23;;;;;;;27.55;9.25;;;;;;;5.65;73.25;103470.81;5064243;28;20068;-68
2023/02/06 11:16:52;;;;;;;34.05;9.68;;;;;;;5.51;72.70;103469.16;5046136;28;20056;-67
2023/02/06 11:19:32;;;;;;;27.02;9.20;;;;;;;5.48;73.15;103447.72;5057230;28;20041;-68
2023/02/06 11:22:03;;;;;;;41.33;8.98;;;;;;;5.33;73.20;103463.50;5053629;28;20048;-67
2023/02/06 11:24:30;;;;;;;37.30;9.65;;;;;;;5.47;72.42;103463.25;5063918;28;20052;-66
2023/02/06 11:27:00;;;;;;;36.15;9.80;;;;;;;5.43;72.80;103450.25;5060153;28;20068;-67
2023/02/06 11:29:36;;;;;;;31.17;9.57;;;;;;;5.60;72.46;103443.28;5062274;28;20059;-66
2023/02/06 11:32:05;;;;;;;33.92;9.30;;;;;;;5.49;72.28;103442.03;5045832;28;20048;-66
2023/02/06 11:34:51;;;;;;;42.45;10.80;;;;;;;5.46;72.17;103445.19;5058412;28;20037;-68
2023/02/06 11:37:36;;;;;;;37.08;10.93;;;;;;;5.50;72.46;103440.16;5062201;28;20513;-67
2023/02/06 11:40:16;;;;;;;30.85;9.32;;;;;;;5.63;71.50;103426.47;5058275;28;20032;-68
2023/02/06 11:42:47;;;;;;;34.83;11.15;;;;;;;5.57;71.41;103419.94;5082342;28;20527;-69